Loch Melfort — 3FRR3 — position and weather

sailwx.info

Track history (hours):
 
Tides and Currents Weather Stations Pressure Air Temp Water Temp Dewpoint Dewpoint Depression Visibility Wind Speed Wind Dir Waves Ship Positions

Loch Melfort

Last reported at 2018-Feb-16 10:43 UTC. Time now 2018-Feb-19 16:18 UTC.
Position N 29°44' W 095°07'.

Length 177 m; draft 6.5 m.

Type: Cargo ship. MMSI: 372924000.

Date/timePositionNaut miles runAvg speedWind from/ knotsBaromVisibWave heightAir tempDewpointWater temp
2018-Feb-16 10:43N 29°44' W 095°07'10535.7
2018-Feb-16 07:46N 28°38' W 093°33'312.7
2018-Feb-16 07:30N 28°40' W 093°36'612.6
2018-Feb-16 07:00N 28°44' W 093°42'612.5
2018-Feb-16 06:30N 28°47' W 093°48'712.5
2018-Feb-16 05:58N 28°51' W 093°54'712.4
2018-Feb-16 05:25N 28°55' W 094°00'612.4
2018-Feb-16 04:57N 28°58' W 094°05'612.3
2018-Feb-16 04:30N 29°02' W 094°11'612.3
2018-Feb-16 03:59N 29°05' W 094°17'612.4
2018-Feb-16 03:30N 29°07' W 094°23'611.8
2018-Feb-16 02:59N 29°11' W 094°29'611.9
2018-Feb-16 02:28N 29°15' W 094°34'510.4
2018-Feb-16 02:00N 29°18' W 094°38'4 8.2
2018-Feb-16 01:30N 29°21' W 094°42'5 9.5
2018-Feb-16 01:00N 29°21' W 094°47'5 9.1
2018-Feb-16 00:27N 29°25' W 094°50'3 7.7
2018-Feb-16 00:00N 29°29' W 094°51'4 8.3
2018-Feb-15 23:29N 29°32' W 094°54'510.4
2018-Feb-15 23:00N 29°36' W 094°57'4 8.2
2018-Feb-15 22:30N 29°40' W 094°59'4 7.1
2018-Feb-15 21:52N 29°44' W 095°02'3 7.9
2018-Feb-15 21:26N 29°46' W 095°05'10 5.4
2018-Feb-15 19:34N 29°44' W 095°17'0 0.0
2018-Feb-15 14:33N 29°44' W 095°17'0 0.0
2018-Feb-15 14:12N 29°44' W 095°17'0 0.0
2018-Feb-15 10:24N 29°44' W 095°17'0 0.0
2018-Feb-15 09:57N 29°44' W 095°17'0 0.0
2018-Feb-15 09:21N 29°44' W 095°17'0 0.0
2018-Feb-15 09:00N 29°44' W 095°17'0 0.0
2018-Feb-15 08:30N 29°44' W 095°17'0 0.0
2018-Feb-15 08:00N 29°44' W 095°17'0 0.0
2018-Feb-15 07:21N 29°44' W 095°17'0 0.0
2018-Feb-15 06:48N 29°44' W 095°17'0 0.0
2018-Feb-15 06:15N 29°44' W 095°17'0 0.0
2018-Feb-15 05:51N 29°44' W 095°17'0 0.0
2018-Feb-15 05:30N 29°44' W 095°17'0 0.0
2018-Feb-15 04:57N 29°44' W 095°17'0 0.0
2018-Feb-15 04:30N 29°44' W 095°17'0 0.0
2018-Feb-15 04:00N 29°44' W 095°17'0 0.0
2018-Feb-15 03:15N 29°44' W 095°17'0 0.0
2018-Feb-15 03:00N 29°44' W 095°17'0 0.0
2018-Feb-15 02:18N 29°44' W 095°17'0 0.0
2018-Feb-15 01:09N 29°44' W 095°17'0 0.0
2018-Feb-14 19:21N 29°44' W 095°17'0 0.0
2018-Feb-14 17:45N 29°44' W 095°17'0 0.0
2018-Feb-14 17:30N 29°44' W 095°17'0 0.0
2018-Feb-14 16:21N 29°44' W 095°17'0 0.0
2018-Feb-14 16:00N 29°44' W 095°17'0 0.0
2018-Feb-14 15:30N 29°44' W 095°17'0 0.0
2018-Feb-14 14:54N 29°44' W 095°17'0 0.0
2018-Feb-14 14:09N 29°44' W 095°17'0 0.0
2018-Feb-14 13:45N 29°44' W 095°17'  
2018-Feb-07 22:57N 29°44' W 095°17'0 0.0
2018-Feb-07 22:27N 29°44' W 095°17'0 0.0
2018-Feb-06 23:27N 29°44' W 095°17'0 0.0
2018-Feb-06 22:51N 29°44' W 095°17'0 0.0
2018-Feb-06 22:27N 29°44' W 095°17'0 0.0
2018-Feb-06 21:57N 29°44' W 095°17'0 0.0
2018-Feb-06 21:27N 29°44' W 095°17'0 0.0
2018-Feb-06 21:00N 29°44' W 095°17'0 0.0
2018-Feb-06 20:30N 29°44' W 095°17'0 0.0
2018-Feb-06 20:00N 29°44' W 095°17'0 0.0
2018-Feb-06 19:30N 29°44' W 095°17'0 0.0
2018-Feb-06 17:42N 29°44' W 095°17'0 0.0
2018-Feb-06 17:21N 29°44' W 095°17'0 0.0
2018-Feb-06 16:54N 29°44' W 095°17'0 0.0
2018-Feb-06 16:24N 29°44' W 095°17'0 0.0
2018-Feb-06 15:57N 29°44' W 095°17'0 0.0
2018-Feb-06 15:27N 29°44' W 095°17'0 0.0
2018-Feb-06 15:00N 29°44' W 095°17'0 0.0
2018-Feb-06 14:30N 29°44' W 095°17'0 0.0
2018-Feb-06 13:57N 29°44' W 095°17'  
Track history (hours):
 
Tides and Currents Weather Stations Pressure Air Temp Water Temp Dewpoint Dewpoint Depression Visibility Wind Speed Wind Dir Waves Ship Positions

Loch Melfort

Last reported at 2018-Feb-16 10:43 UTC. Time now 2018-Feb-19 16:18 UTC.
Position N 29°44' W 095°07'.

Length 177 m; draft 6.5 m.

Type: Cargo ship. MMSI: 372924000.

Date/timePositionNaut miles runAvg speedWind from/ knotsBaromVisibWave heightAir tempDewpointWater temp
2018-Feb-16 10:43N 29°44' W 095°07'10535.7
2018-Feb-16 07:46N 28°38' W 093°33'312.7
2018-Feb-16 07:30N 28°40' W 093°36'612.6
2018-Feb-16 07:00N 28°44' W 093°42'612.5
2018-Feb-16 06:30N 28°47' W 093°48'712.5
2018-Feb-16 05:58N 28°51' W 093°54'712.4
2018-Feb-16 05:25N 28°55' W 094°00'612.4
2018-Feb-16 04:57N 28°58' W 094°05'612.3
2018-Feb-16 04:30N 29°02' W 094°11'612.3
2018-Feb-16 03:59N 29°05' W 094°17'612.4
2018-Feb-16 03:30N 29°07' W 094°23'611.8
2018-Feb-16 02:59N 29°11' W 094°29'611.9
2018-Feb-16 02:28N 29°15' W 094°34'510.4
2018-Feb-16 02:00N 29°18' W 094°38'4 8.2
2018-Feb-16 01:30N 29°21' W 094°42'5 9.5
2018-Feb-16 01:00N 29°21' W 094°47'5 9.1
2018-Feb-16 00:27N 29°25' W 094°50'3 7.7
2018-Feb-16 00:00N 29°29' W 094°51'4 8.3
2018-Feb-15 23:29N 29°32' W 094°54'510.4
2018-Feb-15 23:00N 29°36' W 094°57'4 8.2
2018-Feb-15 22:30N 29°40' W 094°59'4 7.1
2018-Feb-15 21:52N 29°44' W 095°02'3 7.9
2018-Feb-15 21:26N 29°46' W 095°05'10 5.4
2018-Feb-15 19:34N 29°44' W 095°17'0 0.0
2018-Feb-15 14:33N 29°44' W 095°17'0 0.0
2018-Feb-15 14:12N 29°44' W 095°17'0 0.0
2018-Feb-15 10:24N 29°44' W 095°17'0 0.0
2018-Feb-15 09:57N 29°44' W 095°17'0 0.0
2018-Feb-15 09:21N 29°44' W 095°17'0 0.0
2018-Feb-15 09:00N 29°44' W 095°17'0 0.0
2018-Feb-15 08:30N 29°44' W 095°17'0 0.0
2018-Feb-15 08:00N 29°44' W 095°17'0 0.0
2018-Feb-15 07:21N 29°44' W 095°17'0 0.0
2018-Feb-15 06:48N 29°44' W 095°17'0 0.0
2018-Feb-15 06:15N 29°44' W 095°17'0 0.0
2018-Feb-15 05:51N 29°44' W 095°17'0 0.0
2018-Feb-15 05:30N 29°44' W 095°17'0 0.0
2018-Feb-15 04:57N 29°44' W 095°17'0 0.0
2018-Feb-15 04:30N 29°44' W 095°17'0 0.0
2018-Feb-15 04:00N 29°44' W 095°17'0 0.0
2018-Feb-15 03:15N 29°44' W 095°17'0 0.0
2018-Feb-15 03:00N 29°44' W 095°17'0 0.0
2018-Feb-15 02:18N 29°44' W 095°17'0 0.0
2018-Feb-15 01:09N 29°44' W 095°17'0 0.0
2018-Feb-14 19:21N 29°44' W 095°17'0 0.0
2018-Feb-14 17:45N 29°44' W 095°17'0 0.0
2018-Feb-14 17:30N 29°44' W 095°17'0 0.0
2018-Feb-14 16:21N 29°44' W 095°17'0 0.0
2018-Feb-14 16:00N 29°44' W 095°17'0 0.0
2018-Feb-14 15:30N 29°44' W 095°17'0 0.0
2018-Feb-14 14:54N 29°44' W 095°17'0 0.0
2018-Feb-14 14:09N 29°44' W 095°17'0 0.0
2018-Feb-14 13:45N 29°44' W 095°17'  
2018-Feb-07 22:57N 29°44' W 095°17'0 0.0
2018-Feb-07 22:27N 29°44' W 095°17'0 0.0
2018-Feb-06 23:27N 29°44' W 095°17'0 0.0
2018-Feb-06 22:51N 29°44' W 095°17'0 0.0
2018-Feb-06 22:27N 29°44' W 095°17'0 0.0
2018-Feb-06 21:57N 29°44' W 095°17'0 0.0
2018-Feb-06 21:27N 29°44' W 095°17'0 0.0
2018-Feb-06 21:00N 29°44' W 095°17'0 0.0
2018-Feb-06 20:30N 29°44' W 095°17'0 0.0
2018-Feb-06 20:00N 29°44' W 095°17'0 0.0
2018-Feb-06 19:30N 29°44' W 095°17'0 0.0
2018-Feb-06 17:42N 29°44' W 095°17'0 0.0
2018-Feb-06 17:21N 29°44' W 095°17'0 0.0
2018-Feb-06 16:54N 29°44' W 095°17'0 0.0
2018-Feb-06 16:24N 29°44' W 095°17'0 0.0
2018-Feb-06 15:57N 29°44' W 095°17'0 0.0
2018-Feb-06 15:27N 29°44' W 095°17'0 0.0
2018-Feb-06 15:00N 29°44' W 095°17'0 0.0
2018-Feb-06 14:30N 29°44' W 095°17'0 0.0
2018-Feb-06 13:57N 29°44' W 095°17'  

Dump ship's entire track history